sensor_id;sensor_type;location;lat;lon;timestamp;pressure;altitude;pressure_sealevel;temperature;humidity
51297;BME280;37380;45.186;9.792;2023-04-29T00:01:19;101003.91;;;15.53;100.00
51297;BME280;37380;45.186;9.792;2023-04-29T00:03:52;100918.16;;;15.20;100.00
51297;BME280;37380;45.186;9.792;2023-04-29T00:06:54;101005.28;;;15.78;100.00
51297;BME280;37380;45.186;9.792;2023-04-29T00:09:48;100986.50;;;15.59;100.00
51297;BME280;37380;45.186;9.792;2023-04-29T00:12:16;100946.72;;;15.47;100.00
51297;BME280;37380;45.186;9.792;2023-04-29T00:14:43;100932.88;;;15.57;100.00
51297;BME280;37380;45.186;9.792;2023-04-29T00:17:10;100951.38;;;15.60;100.00
51297;BME280;37380;45.186;9.792;2023-04-29T00:19:37;100920.44;;;15.50;100.00
51297;BME280;37380;45.186;9.792;2023-04-29T00:22:04;100932.22;;;15.68;100.00
51297;BME280;37380;45.186;9.792;2023-04-29T00:24:31;100957.53;;;15.59;100.00
51297;BME280;37380;45.186;9.792;2023-04-29T00:26:58;100935.03;;;15.31;100.00
51297;BME280;37380;45.186;9.792;2023-04-29T00:29:33;100949.09;;;15.77;100.00
51297;BME280;37380;45.186;9.792;2023-04-29T00:32:28;100912.56;;;15.50;100.00
51297;BME280;37380;45.186;9.792;2023-04-29T00:34:55;100903.72;;;15.45;100.00
51297;BME280;37380;45.186;9.792;2023-04-29T00:37:23;100937.44;;;15.66;100.00
51297;BME280;37380;45.186;9.792;2023-04-29T00:39:50;100945.69;;;15.84;100.00
51297;BME280;37380;45.186;9.792;2023-04-29T00:42:17;100954.47;;;15.85;100.00
51297;BME280;37380;45.186;9.792;2023-04-29T00:44:45;100941.22;;;15.80;100.00
51297;BME280;37380;45.186;9.792;2023-04-29T00:47:12;100949.25;;;15.41;100.00
51297;BME280;37380;45.186;9.792;2023-04-29T00:49:39;100930.16;;;15.51;100.00
51297;BME280;37380;45.186;9.792;2023-04-29T00:52:07;100919.94;;;15.68;100.00
51297;BME280;37380;45.186;9.792;2023-04-29T00:54:36;100914.69;;;15.68;100.00
51297;BME280;37380;45.186;9.792;2023-04-29T00:57:04;100906.34;;;15.47;100.00
51297;BME280;37380;45.186;9.792;2023-04-29T00:59:59;100881.50;;;15.31;100.00
51297;BME280;37380;45.186;9.792;2023-04-29T01:03:04;100915.94;;;15.43;100.00
51297;BME280;37380;45.186;9.792;2023-04-29T01:06:16;100931.25;;;15.64;100.00
51297;BME280;37380;45.186;9.792;2023-04-29T01:11:46;100943.22;;;15.45;100.00
51297;BME280;37380;45.186;9.792;2023-04-29T01:14:15;100922.72;;;14.85;100.00
51297;BME280;37380;45.186;9.792;2023-04-29T01:16:47;100930.91;;;15.00;100.00
51297;BME280;37380;45.186;9.792;2023-04-29T01:19:54;100939.03;;;15.11;100.00
51297;BME280;37380;45.186;9.792;2023-04-29T01:22:24;100927.56;;;15.07;100.00
51297;BME280;37380;45.186;9.792;2023-04-29T01:24:57;100925.22;;;14.80;100.00
51297;BME280;37380;45.186;9.792;2023-04-29T01:28:53;100933.34;;;14.89;100.00
51297;BME280;37380;45.186;9.792;2023-04-29T01:31:58;100865.66;;;14.40;100.00
51297;BME280;37380;45.186;9.792;2023-04-29T01:43:03;100860.91;;;15.08;100.00
51297;BME280;37380;45.186;9.792;2023-04-29T01:45:33;100901.81;;;15.38;100.00
51297;BME280;37380;45.186;9.792;2023-04-29T01:48:04;100863.53;;;15.07;100.00
51297;BME280;37380;45.186;9.792;2023-04-29T01:50:31;100905.38;;;15.40;100.00
51297;BME280;37380;45.186;9.792;2023-04-29T01:53:06;100918.53;;;15.42;100.00
51297;BME280;37380;45.186;9.792;2023-04-29T01:55:34;100912.28;;;15.33;100.00
51297;BME280;37380;45.186;9.792;2023-04-29T01:58:36;100890.31;;;14.87;100.00
51297;BME280;37380;45.186;9.792;2023-04-29T02:01:43;100863.56;;;14.64;100.00
51297;BME280;37380;45.186;9.792;2023-04-29T02:04:17;100933.19;;;14.83;100.00
51297;BME280;37380;45.186;9.792;2023-04-29T02:07:18;100906.44;;;14.62;100.00
51297;BME280;37380;45.186;9.792;2023-04-29T02:10:13;100916.63;;;14.48;100.00
51297;BME280;37380;45.186;9.792;2023-04-29T02:12:42;100877.75;;;14.33;100.00
51297;BME280;37380;45.186;9.792;2023-04-29T02:15:09;100903.78;;;13.85;100.00
51297;BME280;37380;45.186;9.792;2023-04-29T02:17:36;100905.50;;;13.84;100.00
51297;BME280;37380;45.186;9.792;2023-04-29T02:20:11;100915.06;;;14.18;100.00
51297;BME280;37380;45.186;9.792;2023-04-29T02:23:08;100909.13;;;14.25;100.00
51297;BME280;37380;45.186;9.792;2023-04-29T02:25:35;100923.16;;;14.26;100.00
51297;BME280;37380;45.186;9.792;2023-04-29T02:28:09;100919.97;;;14.03;100.00
51297;BME280;37380;45.186;9.792;2023-04-29T02:31:10;100896.34;;;14.03;100.00
51297;BME280;37380;45.186;9.792;2023-04-29T02:34:05;100862.31;;;14.09;100.00
51297;BME280;37380;45.186;9.792;2023-04-29T02:36:33;100919.31;;;14.51;100.00
51297;BME280;37380;45.186;9.792;2023-04-29T02:39:00;100904.91;;;14.34;100.00
51297;BME280;37380;45.186;9.792;2023-04-29T02:41:28;100887.56;;;14.42;100.00
51297;BME280;37380;45.186;9.792;2023-04-29T02:43:55;100889.31;;;14.40;100.00
51297;BME280;37380;45.186;9.792;2023-04-29T02:46:22;100914.63;;;14.76;100.00
51297;BME280;37380;45.186;9.792;2023-04-29T02:48:51;100835.44;;;14.21;100.00
51297;BME280;37380;45.186;9.792;2023-04-29T02:51:20;100917.63;;;14.92;100.00
51297;BME280;37380;45.186;9.792;2023-04-29T02:53:48;100888.91;;;14.62;100.00
51297;BME280;37380;45.186;9.792;2023-04-29T02:56:15;100911.72;;;14.62;100.00
51297;BME280;37380;45.186;9.792;2023-04-29T02:58:48;100892.38;;;14.60;100.00
51297;BME280;37380;45.186;9.792;2023-04-29T03:01:44;100880.34;;;14.32;100.00
51297;BME280;37380;45.186;9.792;2023-04-29T03:04:17;100871.53;;;14.30;100.00
51297;BME280;37380;45.186;9.792;2023-04-29T03:07:12;100917.78;;;14.59;100.00
51297;BME280;37380;45.186;9.792;2023-04-29T03:09:39;100917.28;;;14.38;100.00
51297;BME280;37380;45.186;9.792;2023-04-29T03:12:06;100892.28;;;14.17;100.00
51297;BME280;37380;45.186;9.792;2023-04-29T03:14:36;100881.97;;;14.26;100.00
51297;BME280;37380;45.186;9.792;2023-04-29T03:17:05;100898.56;;;14.24;100.00
51297;BME280;37380;45.186;9.792;2023-04-29T03:19:33;100908.13;;;14.20;100.00
51297;BME280;37380;45.186;9.792;2023-04-29T03:22:00;100902.81;;;14.57;100.00
51297;BME280;37380;45.186;9.792;2023-04-29T03:24:28;100872.56;;;14.36;100.00
51297;BME280;37380;45.186;9.792;2023-04-29T03:26:55;100925.09;;;14.73;100.00
51297;BME280;37380;45.186;9.792;2023-04-29T03:29:29;100913.53;;;14.64;100.00
51297;BME280;37380;45.186;9.792;2023-04-29T03:32:23;100882.44;;;14.48;100.00
51297;BME280;37380;45.186;9.792;2023-04-29T03:34:50;100846.25;;;14.36;100.00
51297;BME280;37380;45.186;9.792;2023-04-29T03:37:26;100871.72;;;14.39;100.00
51297;BME280;37380;45.186;9.792;2023-04-29T03:40:05;100876.47;;;14.14;100.00
51297;BME280;37380;45.186;9.792;2023-04-29T03:42:32;100859.63;;;14.08;100.00
51297;BME280;37380;45.186;9.792;2023-04-29T03:45:00;100868.09;;;14.34;100.00
51297;BME280;37380;45.186;9.792;2023-04-29T03:47:28;100868.28;;;14.41;100.00
51297;BME280;37380;45.186;9.792;2023-04-29T03:49:55;100910.53;;;14.49;100.00
51297;BME280;37380;45.186;9.792;2023-04-29T03:52:23;100869.78;;;14.30;100.00
51297;BME280;37380;45.186;9.792;2023-04-29T03:54:54;100934.38;;;14.57;100.00
51297;BME280;37380;45.186;9.792;2023-04-29T03:57:21;100890.66;;;14.22;100.00
51297;BME280;37380;45.186;9.792;2023-04-29T03:59:55;100896.81;;;14.24;100.00
51297;BME280;37380;45.186;9.792;2023-04-29T04:02:59;100900.38;;;14.26;100.00
51297;BME280;37380;45.186;9.792;2023-04-29T04:05:59;100920.88;;;14.41;100.00
51297;BME280;37380;45.186;9.792;2023-04-29T04:08:51;100889.81;;;14.23;100.00
51297;BME280;37380;45.186;9.792;2023-04-29T04:11:24;100926.63;;;14.25;100.00
51297;BME280;37380;45.186;9.792;2023-04-29T04:13:56;100875.47;;;14.09;100.00
51297;BME280;37380;45.186;9.792;2023-04-29T04:16:23;100928.53;;;14.32;100.00
51297;BME280;37380;45.186;9.792;2023-04-29T04:18:51;100937.00;;;14.55;100.00
51297;BME280;37380;45.186;9.792;2023-04-29T04:21:24;100910.34;;;14.40;100.00
51297;BME280;37380;45.186;9.792;2023-04-29T04:24:19;100878.50;;;14.27;100.00
51297;BME280;37380;45.186;9.792;2023-04-29T04:26:46;100905.56;;;14.61;100.00
51297;BME280;37380;45.186;9.792;2023-04-29T04:29:23;100907.19;;;14.56;100.00
51297;BME280;37380;45.186;9.792;2023-04-29T04:32:23;100907.84;;;14.47;100.00
51297;BME280;37380;45.186;9.792;2023-04-29T04:34:50;100887.63;;;14.45;100.00
51297;BME280;37380;45.186;9.792;2023-04-29T04:37:23;100897.69;;;14.63;100.00
51297;BME280;37380;45.186;9.792;2023-04-29T04:40:18;100855.44;;;14.54;100.00
51297;BME280;37380;45.186;9.792;2023-04-29T04:43:20;100894.94;;;14.99;100.00
51297;BME280;37380;45.186;9.792;2023-04-29T04:46:22;100887.41;;;14.74;100.00
51297;BME280;37380;45.186;9.792;2023-04-29T04:49:00;100874.41;;;14.81;100.00
51297;BME280;37380;45.186;9.792;2023-04-29T04:51:36;100853.91;;;14.65;100.00
51297;BME280;37380;45.186;9.792;2023-04-29T04:54:31;100902.78;;;14.96;100.00
51297;BME280;37380;45.186;9.792;2023-04-29T04:57:08;100885.19;;;14.95;100.00
51297;BME280;37380;45.186;9.792;2023-04-29T04:59:41;100913.72;;;15.17;100.00
51297;BME280;37380;45.186;9.792;2023-04-29T05:02:42;100897.06;;;14.75;100.00
51297;BME280;37380;45.186;9.792;2023-04-29T05:05:43;100894.66;;;14.85;100.00
51297;BME280;37380;45.186;9.792;2023-04-29T05:08:38;100923.03;;;14.59;100.00
51297;BME280;37380;45.186;9.792;2023-04-29T05:11:17;100850.75;;;14.42;100.00
51297;BME280;37380;45.186;9.792;2023-04-29T05:13:57;100944.06;;;14.99;100.00
51297;BME280;37380;45.186;9.792;2023-04-29T05:16:24;100915.06;;;14.96;100.00
51297;BME280;37380;45.186;9.792;2023-04-29T05:18:53;100941.50;;;15.03;100.00
51297;BME280;37380;45.186;9.792;2023-04-29T05:21:28;100923.13;;;15.05;100.00
51297;BME280;37380;45.186;9.792;2023-04-29T05:23:56;100927.56;;;15.09;100.00
51297;BME280;37380;45.186;9.792;2023-04-29T05:26:23;100914.47;;;15.10;100.00
51297;BME280;37380;45.186;9.792;2023-04-29T05:28:59;100921.59;;;15.16;100.00
51297;BME280;37380;45.186;9.792;2023-04-29T05:31:56;100933.16;;;15.24;100.00
51297;BME280;37380;45.186;9.792;2023-04-29T05:34:23;100889.25;;;15.22;100.00
51297;BME280;37380;45.186;9.792;2023-04-29T05:36:51;100934.88;;;15.24;100.00
51297;BME280;37380;45.186;9.792;2023-04-29T05:39:24;100945.59;;;15.33;100.00
51297;BME280;37380;45.186;9.792;2023-04-29T05:42:29;100953.56;;;15.36;100.00
51297;BME280;37380;45.186;9.792;2023-04-29T05:45:23;100965.72;;;15.29;100.00
51297;BME280;37380;45.186;9.792;2023-04-29T05:47:50;100933.06;;;15.20;100.00
51297;BME280;37380;45.186;9.792;2023-04-29T05:50:17;100962.41;;;15.41;100.00
51297;BME280;37380;45.186;9.792;2023-04-29T05:52:44;100954.00;;;15.60;100.00
51297;BME280;37380;45.186;9.792;2023-04-29T05:55:12;100955.06;;;15.69;100.00
51297;BME280;37380;45.186;9.792;2023-04-29T05:57:39;100919.34;;;15.36;100.00
51297;BME280;37380;45.186;9.792;2023-04-29T06:00:07;100949.66;;;15.62;100.00
51297;BME280;37380;45.186;9.792;2023-04-29T06:02:39;100940.91;;;15.63;100.00
51297;BME280;37380;45.186;9.792;2023-04-29T06:05:44;100928.78;;;15.72;100.00
51297;BME280;37380;45.186;9.792;2023-04-29T06:08:38;100921.31;;;15.99;100.00
51297;BME280;37380;45.186;9.792;2023-04-29T06:11:19;100924.13;;;16.09;100.00
51297;BME280;37380;45.186;9.792;2023-04-29T06:13:46;100956.13;;;16.35;100.00
51297;BME280;37380;45.186;9.792;2023-04-29T06:16:14;100893.47;;;15.63;100.00
51297;BME280;37380;45.186;9.792;2023-04-29T06:18:41;100889.59;;;15.93;100.00
51297;BME280;37380;45.186;9.792;2023-04-29T06:21:08;100952.91;;;16.54;100.00
51297;BME280;37380;45.186;9.792;2023-04-29T06:23:35;100946.28;;;16.81;100.00
51297;BME280;37380;45.186;9.792;2023-04-29T06:26:08;100913.31;;;16.51;100.00
51297;BME280;37380;45.186;9.792;2023-04-29T06:28:41;100992.81;;;17.42;100.00
51297;BME280;37380;45.186;9.792;2023-04-29T06:31:44;100955.22;;;17.74;100.00
51297;BME280;37380;45.186;9.792;2023-04-29T06:34:40;100976.66;;;17.99;100.00
51297;BME280;37380;45.186;9.792;2023-04-29T06:37:56;100997.28;;;18.43;100.00
51297;BME280;37380;45.186;9.792;2023-04-29T06:40:46;100958.31;;;18.19;100.00
51297;BME280;37380;45.186;9.792;2023-04-29T06:43:19;100990.25;;;18.48;100.00
51297;BME280;37380;45.186;9.792;2023-04-29T06:46:32;101003.66;;;18.71;100.00
51297;BME280;37380;45.186;9.792;2023-04-29T06:49:08;100968.41;;;18.73;100.00
51297;BME280;37380;45.186;9.792;2023-04-29T06:51:42;100977.28;;;18.89;100.00
51297;BME280;37380;45.186;9.792;2023-04-29T06:54:43;100996.78;;;17.08;100.00
51297;BME280;37380;45.186;9.792;2023-04-29T06:57:38;101012.00;;;18.10;100.00
51297;BME280;37380;45.186;9.792;2023-04-29T07:00:05;100977.41;;;17.84;100.00
51297;BME280;37380;45.186;9.792;2023-04-29T07:02:33;101015.13;;;17.74;100.00
51297;BME280;37380;45.186;9.792;2023-04-29T07:05:01;100996.34;;;17.43;100.00
51297;BME280;37380;45.186;9.792;2023-04-29T07:07:28;101029.28;;;17.77;100.00
51297;BME280;37380;45.186;9.792;2023-04-29T07:09:56;101010.47;;;17.50;100.00
51297;BME280;37380;45.186;9.792;2023-04-29T07:12:23;100980.28;;;17.26;100.00
51297;BME280;37380;45.186;9.792;2023-04-29T07:14:53;101000.44;;;17.18;100.00
51297;BME280;37380;45.186;9.792;2023-04-29T07:17:20;100988.66;;;16.91;100.00
51297;BME280;37380;45.186;9.792;2023-04-29T07:19:47;101031.97;;;17.06;100.00
51297;BME280;37380;45.186;9.792;2023-04-29T07:22:21;101016.59;;;16.77;100.00
51297;BME280;37380;45.186;9.792;2023-04-29T07:25:15;101037.06;;;16.93;100.00
51297;BME280;37380;45.186;9.792;2023-04-29T07:27:49;100993.06;;;16.92;100.00
51297;BME280;37380;45.186;9.792;2023-04-29T07:30:50;100985.75;;;16.74;100.00
51297;BME280;37380;45.186;9.792;2023-04-29T07:33:49;100961.94;;;16.70;100.00
51297;BME280;37380;45.186;9.792;2023-04-29T07:36:16;100983.25;;;16.82;100.00
51297;BME280;37380;45.186;9.792;2023-04-29T07:38:50;101034.72;;;17.15;100.00
51297;BME280;37380;45.186;9.792;2023-04-29T07:41:52;101034.00;;;17.28;100.00
51297;BME280;37380;45.186;9.792;2023-04-29T07:44:46;101012.19;;;16.78;100.00
51297;BME280;37380;45.186;9.792;2023-04-29T07:47:13;100993.44;;;16.59;100.00
51297;BME280;37380;45.186;9.792;2023-04-29T07:49:40;101040.78;;;16.51;100.00
51297;BME280;37380;45.186;9.792;2023-04-29T07:52:15;100988.13;;;16.00;100.00
51297;BME280;37380;45.186;9.792;2023-04-29T07:55:09;101046.13;;;16.55;100.00
51297;BME280;37380;45.186;9.792;2023-04-29T07:57:36;100998.00;;;16.12;100.00
51297;BME280;37380;45.186;9.792;2023-04-29T08:00:05;101006.09;;;16.24;100.00
51297;BME280;37380;45.186;9.792;2023-04-29T08:02:41;101027.75;;;16.59;100.00
51297;BME280;37380;45.186;9.792;2023-04-29T08:05:12;101033.31;;;16.76;100.00
51297;BME280;37380;45.186;9.792;2023-04-29T08:07:40;101000.00;;;16.84;100.00
51297;BME280;37380;45.186;9.792;2023-04-29T08:10:07;101014.22;;;16.95;100.00
51297;BME280;37380;45.186;9.792;2023-04-29T08:12:49;100993.03;;;16.91;100.00
51297;BME280;37380;45.186;9.792;2023-04-29T08:15:45;101026.19;;;17.39;100.00
51297;BME280;37380;45.186;9.792;2023-04-29T08:18:14;101030.16;;;17.76;100.00
51297;BME280;37380;45.186;9.792;2023-04-29T08:20:48;101007.47;;;17.97;100.00
51297;BME280;37380;45.186;9.792;2023-04-29T08:23:45;100990.81;;;18.08;100.00
51297;BME280;37380;45.186;9.792;2023-04-29T08:26:12;100987.25;;;18.03;100.00
51297;BME280;37380;45.186;9.792;2023-04-29T08:28:46;101019.34;;;18.45;100.00
51297;BME280;37380;45.186;9.792;2023-04-29T08:31:40;101019.47;;;18.62;100.00
51297;BME280;37380;45.186;9.792;2023-04-29T08:34:07;100989.59;;;18.73;100.00
51297;BME280;37380;45.186;9.792;2023-04-29T08:36:34;101026.94;;;19.32;100.00
51297;BME280;37380;45.186;9.792;2023-04-29T08:39:04;101009.03;;;18.85;100.00
51297;BME280;37380;45.186;9.792;2023-04-29T08:41:31;101013.69;;;19.29;100.00
51297;BME280;37380;45.186;9.792;2023-04-29T08:44:01;101017.38;;;19.86;100.00
51297;BME280;37380;45.186;9.792;2023-04-29T08:46:29;101028.72;;;19.42;100.00
51297;BME280;37380;45.186;9.792;2023-04-29T08:48:57;101014.09;;;18.52;100.00
51297;BME280;37380;45.186;9.792;2023-04-29T08:51:32;101018.00;;;19.07;100.00
51297;BME280;37380;45.186;9.792;2023-04-29T08:54:33;100986.19;;;19.05;100.00
51297;BME280;37380;45.186;9.792;2023-04-29T08:57:29;100923.47;;;18.89;100.00
51297;BME280;37380;45.186;9.792;2023-04-29T09:00:03;100988.97;;;19.36;100.00
51297;BME280;37380;45.186;9.792;2023-04-29T09:03:13;100975.81;;;19.74;100.00
51297;BME280;37380;45.186;9.792;2023-04-29T09:06:10;100966.03;;;19.52;100.00
51297;BME280;37380;45.186;9.792;2023-04-29T09:08:38;101002.38;;;20.14;100.00
51297;BME280;37380;45.186;9.792;2023-04-29T09:11:09;100970.44;;;19.42;100.00
51297;BME280;37380;45.186;9.792;2023-04-29T09:13:37;100997.97;;;19.99;100.00
51297;BME280;37380;45.186;9.792;2023-04-29T09:16:10;100888.28;;;19.39;100.00
51297;BME280;37380;45.186;9.792;2023-04-29T09:18:50;100952.41;;;17.51;100.00
51297;BME280;37380;45.186;9.792;2023-04-29T09:23:53;101003.28;;;18.23;100.00
51297;BME280;37380;45.186;9.792;2023-04-29T09:26:27;100989.38;;;17.51;100.00
51297;BME280;37380;45.186;9.792;2023-04-29T09:29:22;100811.84;;;17.95;100.00
51297;BME280;37380;45.186;9.792;2023-04-29T09:33:04;100945.78;;;17.96;100.00
51297;BME280;37380;45.186;9.792;2023-04-29T09:36:47;101015.50;;;19.57;100.00
51297;BME280;37380;45.186;9.792;2023-04-29T09:39:47;100982.66;;;19.08;100.00
51297;BME280;37380;45.186;9.792;2023-04-29T09:42:41;100824.38;;;17.15;100.00
51297;BME280;37380;45.186;9.792;2023-04-29T09:45:10;100934.03;;;18.80;100.00
51297;BME280;37380;45.186;9.792;2023-04-29T09:47:42;100833.91;;;18.03;100.00
51297;BME280;37380;45.186;9.792;2023-04-29T09:50:11;100879.97;;;17.29;100.00
51297;BME280;37380;45.186;9.792;2023-04-29T09:52:45;100832.16;;;18.08;100.00
51297;BME280;37380;45.186;9.792;2023-04-29T09:55:19;100819.75;;;17.92;100.00
51297;BME280;37380;45.186;9.792;2023-04-29T09:57:54;100809.63;;;18.92;100.00
51297;BME280;37380;45.186;9.792;2023-04-29T10:00:55;100802.38;;;18.43;100.00
51297;BME280;37380;45.186;9.792;2023-04-29T10:03:58;100845.84;;;19.04;100.00
51297;BME280;37380;45.186;9.792;2023-04-29T10:06:37;100942.09;;;19.26;100.00
51297;BME280;37380;45.186;9.792;2023-04-29T10:09:07;100977.59;;;20.56;100.00
51297;BME280;37380;45.186;9.792;2023-04-29T10:11:43;100959.03;;;19.95;100.00
51297;BME280;37380;45.186;9.792;2023-04-29T10:15:02;100981.13;;;20.43;100.00
51297;BME280;37380;45.186;9.792;2023-04-29T10:20:26;100926.91;;;21.19;100.00
51297;BME280;37380;45.186;9.792;2023-04-29T10:22:54;100974.94;;;20.53;100.00
51297;BME280;37380;45.186;9.792;2023-04-29T10:25:23;100983.66;;;19.33;100.00
51297;BME280;37380;45.186;9.792;2023-04-29T10:27:59;100957.84;;;21.36;100.00
51297;BME280;37380;45.186;9.792;2023-04-29T10:31:00;100949.28;;;20.66;100.00
51297;BME280;37380;45.186;9.792;2023-04-29T10:33:56;100964.09;;;21.27;100.00
51297;BME280;37380;45.186;9.792;2023-04-29T10:36:28;100885.59;;;20.40;100.00
51297;BME280;37380;45.186;9.792;2023-04-29T10:39:02;100937.75;;;20.50;100.00
51297;BME280;37380;45.186;9.792;2023-04-29T10:41:34;100949.13;;;21.05;100.00
51297;BME280;37380;45.186;9.792;2023-04-29T10:44:09;100956.13;;;21.24;100.00
51297;BME280;37380;45.186;9.792;2023-04-29T10:47:18;100937.69;;;20.84;100.00
51297;BME280;37380;45.186;9.792;2023-04-29T10:50:05;100937.88;;;22.01;100.00
51297;BME280;37380;45.186;9.792;2023-04-29T10:52:50;100943.63;;;21.47;100.00
51297;BME280;37380;45.186;9.792;2023-04-29T10:55:18;100945.25;;;21.70;100.00
51297;BME280;37380;45.186;9.792;2023-04-29T10:57:45;100873.03;;;22.13;98.48
51297;BME280;37380;45.186;9.792;2023-04-29T11:00:26;100939.59;;;22.95;95.69
51297;BME280;37380;45.186;9.792;2023-04-29T11:02:54;100941.19;;;22.31;97.68
51297;BME280;37380;45.186;9.792;2023-04-29T11:05:40;100917.84;;;21.59;100.00
51297;BME280;37380;45.186;9.792;2023-04-29T11:08:20;100928.06;;;20.51;100.00
51297;BME280;37380;45.186;9.792;2023-04-29T11:10:59;100904.81;;;21.13;100.00
51297;BME280;37380;45.186;9.792;2023-04-29T11:13:39;100912.19;;;19.89;100.00
51297;BME280;37380;45.186;9.792;2023-04-29T11:17:13;100909.97;;;21.40;100.00
51297;BME280;37380;45.186;9.792;2023-04-29T11:20:13;100871.78;;;21.54;100.00
51297;BME280;37380;45.186;9.792;2023-04-29T11:22:41;100889.34;;;21.76;100.00
51297;BME280;37380;45.186;9.792;2023-04-29T11:25:16;100924.03;;;22.61;100.00
51297;BME280;37380;45.186;9.792;2023-04-29T11:27:51;100898.72;;;22.99;94.21
51297;BME280;37380;45.186;9.792;2023-04-29T11:30:52;100883.66;;;22.92;91.10
51297;BME280;37380;45.186;9.792;2023-04-29T11:33:49;100861.09;;;22.51;97.77
51297;BME280;37380;45.186;9.792;2023-04-29T11:36:17;100860.63;;;22.12;96.52
51297;BME280;37380;45.186;9.792;2023-04-29T11:38:44;100881.50;;;22.53;98.56
51297;BME280;37380;45.186;9.792;2023-04-29T11:41:12;100862.22;;;21.27;100.00
51297;BME280;37380;45.186;9.792;2023-04-29T11:43:41;100857.34;;;20.25;100.00
51297;BME280;37380;45.186;9.792;2023-04-29T11:46:12;100877.28;;;21.23;100.00
51297;BME280;37380;45.186;9.792;2023-04-29T11:48:47;100861.56;;;20.85;100.00
51297;BME280;37380;45.186;9.792;2023-04-29T11:51:16;100846.94;;;21.58;100.00
51297;BME280;37380;45.186;9.792;2023-04-29T11:53:44;100851.94;;;20.59;100.00
51297;BME280;37380;45.186;9.792;2023-04-29T11:56:12;100863.53;;;21.84;99.55
51297;BME280;37380;45.186;9.792;2023-04-29T11:58:41;100843.34;;;22.53;97.22
51297;BME280;37380;45.186;9.792;2023-04-29T12:01:09;100884.47;;;23.00;91.55
51297;BME280;37380;45.186;9.792;2023-04-29T12:03:37;100887.25;;;23.54;93.20
51297;BME280;37380;45.186;9.792;2023-04-29T12:06:04;100809.97;;;22.89;92.25
51297;BME280;37380;45.186;9.792;2023-04-29T12:08:41;100886.69;;;22.64;92.79
51297;BME280;37380;45.186;9.792;2023-04-29T12:11:39;100852.44;;;22.33;94.32
51297;BME280;37380;45.186;9.792;2023-04-29T12:14:13;100845.16;;;22.48;96.69
51297;BME280;37380;45.186;9.792;2023-04-29T12:17:14;100848.25;;;22.05;99.53
51297;BME280;37380;45.186;9.792;2023-04-29T12:20:09;100867.66;;;22.19;100.00
51297;BME280;37380;45.186;9.792;2023-04-29T12:22:46;100839.28;;;22.92;98.52
51297;BME280;37380;45.186;9.792;2023-04-29T12:25:14;100865.50;;;23.24;91.93
51297;BME280;37380;45.186;9.792;2023-04-29T12:27:49;100762.47;;;22.58;93.13
51297;BME280;37380;45.186;9.792;2023-04-29T12:30:52;100847.38;;;23.99;88.26
51297;BME280;37380;45.186;9.792;2023-04-29T12:33:53;100859.47;;;24.63;89.34
51297;BME280;37380;45.186;9.792;2023-04-29T12:36:22;100853.16;;;24.23;82.25
51297;BME280;37380;45.186;9.792;2023-04-29T12:38:49;100830.13;;;23.12;84.81
51297;BME280;37380;45.186;9.792;2023-04-29T12:41:16;100835.03;;;22.76;87.55
51297;BME280;37380;45.186;9.792;2023-04-29T12:43:44;100811.31;;;23.22;89.49
51297;BME280;37380;45.186;9.792;2023-04-29T12:46:13;100852.25;;;24.24;81.48
51297;BME280;37380;45.186;9.792;2023-04-29T12:48:40;100846.78;;;23.82;85.21
51297;BME280;37380;45.186;9.792;2023-04-29T12:51:11;100837.91;;;23.25;86.45
51297;BME280;37380;45.186;9.792;2023-04-29T12:53:39;100772.47;;;23.06;89.33
51297;BME280;37380;45.186;9.792;2023-04-29T12:56:06;100820.75;;;23.43;86.57
51297;BME280;37380;45.186;9.792;2023-04-29T12:58:34;100824.31;;;23.95;84.07
51297;BME280;37380;45.186;9.792;2023-04-29T13:01:01;100792.84;;;23.63;81.33
51297;BME280;37380;45.186;9.792;2023-04-29T13:03:29;100798.97;;;22.50;87.69
51297;BME280;37380;45.186;9.792;2023-04-29T13:06:02;100821.13;;;21.69;93.22
51297;BME280;37380;45.186;9.792;2023-04-29T13:08:36;100779.22;;;20.88;98.95
51297;BME280;37380;45.186;9.792;2023-04-29T13:11:39;100818.06;;;22.09;88.99
51297;BME280;37380;45.186;9.792;2023-04-29T13:14:40;100807.22;;;22.30;91.28
51297;BME280;37380;45.186;9.792;2023-04-29T13:17:37;100820.56;;;22.97;85.27
51297;BME280;37380;45.186;9.792;2023-04-29T13:20:07;100818.63;;;23.64;79.93
51297;BME280;37380;45.186;9.792;2023-04-29T13:22:44;100825.25;;;23.92;79.91
51297;BME280;37380;45.186;9.792;2023-04-29T13:25:48;100648.69;;;21.32;90.73
51297;BME280;37380;45.186;9.792;2023-04-29T13:28:50;100810.44;;;23.22;86.51
51297;BME280;37380;45.186;9.792;2023-04-29T13:31:59;100805.69;;;22.79;88.24
51297;BME280;37380;45.186;9.792;2023-04-29T13:34:55;100783.13;;;23.06;90.45
51297;BME280;37380;45.186;9.792;2023-04-29T13:37:33;100796.41;;;23.09;89.89
51297;BME280;37380;45.186;9.792;2023-04-29T13:40:35;100797.06;;;21.81;91.61
51297;BME280;37380;45.186;9.792;2023-04-29T13:43:37;100795.03;;;22.79;89.98
51297;BME280;37380;45.186;9.792;2023-04-29T13:46:16;100784.78;;;22.48;86.72
51297;BME280;37380;45.186;9.792;2023-04-29T13:49:17;100773.09;;;22.62;86.89
51297;BME280;37380;45.186;9.792;2023-04-29T13:52:15;100742.88;;;22.63;87.57
51297;BME280;37380;45.186;9.792;2023-04-29T13:54:45;100781.22;;;22.51;89.44
51297;BME280;37380;45.186;9.792;2023-04-29T13:57:41;100718.53;;;22.28;88.16
51297;BME280;37380;45.186;9.792;2023-04-29T14:00:14;100774.75;;;22.70;87.82
51297;BME280;37380;45.186;9.792;2023-04-29T14:03:03;100678.88;;;22.70;83.66